Pagina principale
METAR-TAF:

METAR-TAF

Aeroporti :

Chièvres, Belgio

latitudine: 50-34N, longitudine: 003-50E, altezza: 60 m

Osservazione

Il bollettino è stato emesso 57 minuti fa, alle 20:25 UTC
Vento 10 kt da est
Temperature 8°C
Umidità 76%
Pressione 997 hPa
Visibilità 10 km o più

METAR: EBCV 222025Z AUTO 10010KT 9999 FEW063/// SCT084/// BKN210/// 08/04 Q0997 BLU

Ora: 22:22 (21:22 UTC)

Previsione

Il bollettino è stato emesso 5 ore e 41 minuti fa, alle 15:41 UTC
Previsione valida dal 22 alle 19 UTC al 23 alle 07 UTC
Vento 12 kt da est/sud-est
Visibilità 10 km o più
Poco nuvoloso ad un'altezza di 25000 ft
Evoluzione graduale
dal 22 alle 20 UTC al 22 alle 22 UTC
Nuvoloso ad un'altezza di 7000 ft

TAF: EBCV 221541Z 2219/2307 12012KT 9999 FEW250 BECMG 2220/2222 BKN070 BY EBWM

Osservazioni e previsioni meteorologiche di più di 4000 aeroporti (messaggi METAR e TAF).

Le stazioni disponibili sono rappresentate dai dischi gialli e rossi sulla carta.

Puntare il mouse per vedere il nome della stazione.

Clicca sopra per visualizzare le osservazioni e previsioni meteorologiche.

Per cambiare la mappa : fare clic sui pulsanti verdi con una croce nera per ingrandire, il pulsante verde con un trattino per diminuire, o sulla freccia verde per le mappe adiacenti.


METAR-TAF: